Terminal Aerodrome Forecast
Issued by NWS

Home | Current Version | Previous Version | Text Only | Print | Product List | Glossary On
Versions: 1 2 3 4 5 6 7 8 9 10 11 12 13
000
FTUS45 KRIW 150500
TAFCPR
TAF
KCPR 150530Z 1506/1606 05007KT P6SM SKC
     FM151000 VRB05KT P6SM SKC
     FM152000 18007KT P6SM FEW110
     FM160200 VRB06KT P6SM FEW120=

USA.gov is the U.S. government's official web portal to all federal, state and local government web resources and services.